Vienna, OH

9:15 AM EDT on July 30, 2016 (GMT -0400)
Youngstown-Warren Regional | | Change Station

Elev 1184 ft 41.25 °N, 80.67 °W | Updated 24 minutes ago

Overcast
Overcast
70 °F
Feels Like 70 °F
N
9
Wind Variable Wind from ENE

Today
High -- | Low -- °F
--% Chance of Precip.
Yesterday
High -- | Low -- °F
Precip. -- in
Pressure 29.95 in
Visibility 10.0 miles
Clouds Few 400 ft
Mostly Cloudy 12000 ft
Overcast 18000 ft
Dew Point 67 °F
Humidity 90%
Rainfall 0.01 in
Snow Depth Not available.
6:16 AM 8:41 PM
Waning Crescent, 13% visible
METAR KYNG 301251Z 07008KT 10SM FEW004 BKN120 OVC180 21/19 A2997 RMK AO2 SLP142 T02110194
Pressure 29.95 in
Visibility 10.0 miles
Clouds Few 400 ft
Mostly Cloudy 12000 ft
Overcast 18000 ft
Dew Point 67 °F
Humidity 90%
Rainfall 0.01 in
Snow Depth Not available.
6:16 AM 8:41 PM
Waning Crescent, 13% visible
METAR KYNG 301251Z 07008KT 10SM FEW004 BKN120 OVC180 21/19 A2997 RMK AO2 SLP142 T02110194

10-Day Weather Forecast

Almanac

Astronomy

Jul. 30, 2016 Rise Set
Actual Time
Civil Twilight
Nautical Twilight
Astronomical Twilight
Moon
Length of Visible Light
Length of Day
Tomorrow will be .
, % of the Moon is Illuminated

Today's Extremes

State Highs State Lows

Community

WunderPhotos

Upload Photos

1,928,555 photos uploaded!

WunderBlog® & News

Nearby

Air Quality

  Air Quality AQ Index Pollutant
Not available.

Snow Depth

Station Depth Elevation

Earthquake Activity

City Distance Mag. Time & Date
Minimum magnitude displayed is 2.5.

Coastal Water Temperatures

Place Temperature

Stations

Nearby Weather Stations

Station Location Temp. Windchill Dew Point Humidity Wind Precip. Elev Updated Type
                   

Watches & Warnings

There are currently no watches in effect.